Time;durP1;ratioP1;P1;durP2;ratioP2;P2;SDS_P1;SDS_P2;PMS_P1;PMS_P2;Temp;Humidity;BMP_temperature;BMP_pressure;BME280_temperature;BME280_humidity;BME280_pressure;Samples;Min_cycle;Max_cycle;Signal;HPM_P1;HPM_P2
2022/09/28 00:01:14;;;;;;;;;3.67;2.00;;;;;14.34;94.48;99537.66;5061731;28;45318;-76
2022/09/28 00:03:39;;;;;;;;;3.00;3.00;;;;;14.08;95.76;99540.50;5075451;28;45260;-75
2022/09/28 00:06:09;;;;;;;;;4.00;4.00;;;;;14.03;97.00;99531.53;5059364;28;45159;-75
2022/09/28 00:08:35;;;;;;;;;1.67;1.00;;;;;13.97;96.80;99515.34;5059731;28;46484;-75
2022/09/28 00:11:01;;;;;;;;;1.67;1.67;;;;;13.99;96.76;99537.31;5060440;28;45402;-75
2022/09/28 00:13:27;;;;;;;;;2.33;2.33;;;;;13.88;95.41;99520.19;5059311;28;45354;-77
2022/09/28 00:16:24;;;;;;;;;3.67;3.67;;;;;13.94;95.46;99534.50;5060980;28;45832;-76
2022/09/28 00:18:50;;;;;;;;;2.33;2.33;;;;;13.88;94.60;99530.06;5050161;28;47861;-76
2022/09/28 00:21:18;;;;;;;;;6.67;5.33;;;;;13.88;94.50;99519.38;5060400;28;45343;-76
2022/09/28 00:26:30;;;;;;;;;4.00;2.67;;;;;13.85;93.47;99509.97;5059993;28;45320;-75
2022/09/28 00:28:58;;;;;;;;;2.00;2.00;;;;;13.84;92.94;99511.03;5058443;28;47574;-76
2022/09/28 00:31:25;;;;;;;;;3.67;3.00;;;;;13.86;92.69;99497.44;5060210;28;45375;-76
2022/09/28 00:33:51;;;;;;;;;4.00;3.33;;;;;13.82;92.61;99485.56;5059928;28;45385;-76
2022/09/28 00:36:16;;;;;;;;;1.33;1.33;;;;;13.85;92.21;99496.63;5058751;28;46852;-76
2022/09/28 00:38:42;;;;;;;;;2.67;1.67;;;;;13.89;91.67;99503.13;5059621;28;46238;-76
2022/09/28 00:41:10;;;;;;;;;2.00;2.00;;;;;13.87;91.32;99493.72;5059895;28;45121;-77
2022/09/28 00:43:35;;;;;;;;;2.00;1.33;;;;;13.85;91.11;99488.59;5060099;28;45301;-77
2022/09/28 00:46:04;;;;;;;;;1.00;1.00;;;;;13.87;91.21;99493.72;5059379;28;45424;-77
2022/09/28 00:48:35;;;;;;;;;1.00;1.00;;;;;13.80;91.08;99509.03;5059952;28;45494;-77
2022/09/28 00:51:06;;;;;;;;;1.00;1.00;;;;;13.87;91.39;99507.91;5059649;28;45274;-77
2022/09/28 00:53:36;;;;;;;;;1.33;1.00;;;;;13.91;91.04;99497.56;5059851;28;45284;-76
2022/09/28 00:56:06;;;;;;;;;2.00;2.00;;;;;13.89;90.85;99494.31;5058229;28;46508;-77
2022/09/28 00:58:35;;;;;;;;;2.00;2.00;;;;;13.93;90.51;99495.50;5059533;28;46111;-77
2022/09/28 01:01:02;;;;;;;;;2.67;2.33;;;;;13.96;90.39;99500.38;5059549;28;45295;-77
2022/09/28 01:03:28;;;;;;;;;18.00;17.00;;;;;13.98;89.92;99486.78;5072254;28;45524;-77
2022/09/28 01:05:57;;;;;;;;;19.67;19.00;;;;;13.96;89.87;99492.38;5058152;28;45924;-77
2022/09/28 01:08:26;;;;;;;;;7.33;7.33;;;;;13.96;90.30;99503.06;5056695;28;48470;-76
2022/09/28 01:10:52;;;;;;;;;4.33;3.00;;;;;13.94;90.31;99498.97;5059584;28;45357;-76
2022/09/28 01:13:19;;;;;;;;;4.00;2.33;;;;;13.89;90.47;99497.78;5058135;28;45361;-76
2022/09/28 01:15:56;;;;;;;;;4.33;4.33;;;;;14.01;90.55;99505.84;5059132;28;45338;-76
2022/09/28 01:18:36;;;;;;;;;2.00;2.00;;;;;14.01;90.68;99499.69;5057849;28;47178;-76
2022/09/28 01:21:15;;;;;;;;;2.00;2.00;;;;;13.98;89.96;99487.59;5059438;28;45516;-76
2022/09/28 01:24:30;;;;;;;;;4.67;3.67;;;;;13.98;90.61;99498.28;5059046;28;45298;-76
2022/09/28 01:27:12;;;;;;;;;2.00;1.67;;;;;13.93;91.29;99482.13;5057207;28;45351;-75
2022/09/28 01:29:56;;;;;;;;;5.33;5.33;;;;;14.00;91.08;99490.03;5059363;28;45619;-75
2022/09/28 01:32:21;;;;;;;;;8.67;5.67;;;;;14.03;91.22;99486.91;5057671;28;45296;-76
2022/09/28 01:35:06;;;;;;;;;4.00;4.00;;;;;13.99;91.37;99478.56;5059313;28;45375;-75
2022/09/28 01:38:05;;;;;;;;;6.00;5.00;;;;;14.03;91.46;99491.47;5058816;28;45441;-76
2022/09/28 01:40:32;;;;;;;;;3.33;2.33;;;;;14.00;91.09;99477.50;5050633;28;45594;-75
2022/09/28 01:43:03;;;;;;;;;6.67;4.00;;;;;14.01;91.25;99481.00;5058766;28;45315;-75
2022/09/28 01:45:34;;;;;;;;;4.00;4.00;;;;;14.01;91.30;99484.47;5059300;28;45504;-76
2022/09/28 01:48:05;;;;;;;;;2.33;2.33;;;;;14.02;91.50;99471.94;5057487;28;47294;-75
2022/09/28 01:50:37;;;;;;;;;3.67;3.33;;;;;13.97;91.75;99458.44;5059029;28;46555;-75
2022/09/28 01:53:27;;;;;;;;;6.00;4.00;;;;;14.03;91.90;99467.41;5058586;28;45292;-75
2022/09/28 01:55:59;;;;;;;;;2.00;2.00;;;;;14.06;91.73;99469.59;5057826;28;45406;-75
2022/09/28 01:58:55;;;;;;;;;3.00;3.00;;;;;14.07;91.57;99476.59;5057579;28;46219;-75
2022/09/28 02:01:35;;;;;;;;;4.33;4.00;;;;;14.08;91.58;99483.56;5041484;28;48298;-75
2022/09/28 02:04:13;;;;;;;;;6.00;5.33;;;;;14.04;91.55;99467.19;5045358;28;45429;-75
2022/09/28 02:07:11;;;;;;;;;4.00;3.67;;;;;14.03;91.82;99460.19;5058604;28;45261;-75
2022/09/28 02:09:43;;;;;;;;;5.00;3.00;;;;;14.09;91.75;99469.97;5055756;28;45346;-75
2022/09/28 02:12:15;;;;;;;;;6.00;5.00;;;;;14.10;91.67;99473.47;5058447;28;45651;-75
2022/09/28 02:14:45;;;;;;;;;8.33;7.00;;;;;13.99;91.34;99445.69;5058706;28;45325;-76
2022/09/28 02:17:11;;;;;;;;;7.33;4.67;;;;;14.07;91.50;99465.91;5058567;28;45334;-76
2022/09/28 02:19:37;;;;;;;;;6.67;5.00;;;;;14.01;91.64;99455.09;5057734;28;45428;-75
2022/09/28 02:22:06;;;;;;;;;4.00;4.00;;;;;14.06;91.34;99464.25;5060432;28;48316;-75
2022/09/28 02:24:39;;;;;;;;;4.00;3.33;;;;;14.04;91.21;99463.69;5060618;28;45271;-76
2022/09/28 02:27:50;;;;;;;;;5.00;4.00;;;;;13.99;91.33;99454.53;5062324;28;45416;-75
2022/09/28 02:30:16;;;;;;;;;5.33;5.00;;;;;13.98;91.50;99468.09;5060541;28;46393;-76
2022/09/28 02:32:46;;;;;;;;;3.67;3.67;;;;;13.98;91.57;99468.09;5061735;28;45912;-75
2022/09/28 02:35:14;;;;;;;;;3.33;3.33;;;;;13.91;91.43;99462.84;5061945;28;45315;-75
2022/09/28 02:37:40;;;;;;;;;5.00;5.00;;;;;13.94;91.86;99462.38;5060287;28;45247;-76
2022/09/28 02:40:30;;;;;;;;;5.00;4.67;;;;;13.93;91.71;99462.63;5061969;28;45323;-76
2022/09/28 02:43:08;;;;;;;;;7.67;5.00;;;;;13.91;91.46;99462.03;5060504;28;47262;-75
2022/09/28 02:45:36;;;;;;;;;4.00;4.00;;;;;13.91;91.67;99454.81;5060420;28;45402;-75
2022/09/28 02:48:30;;;;;;;;;3.67;3.67;;;;;13.92;91.60;99455.66;5061458;28;45497;-76
2022/09/28 02:51:28;;;;;;;;;5.33;5.33;;;;;13.87;91.85;99457.16;5061574;28;45451;-75
2022/09/28 02:54:29;;;;;;;;;5.00;5.00;;;;;13.89;91.82;99462.28;5061282;28;45607;-76
2022/09/28 02:57:23;;;;;;;;;6.00;6.00;;;;;13.84;91.88;99451.44;5040844;28;45910;-76
2022/09/28 03:00:00;;;;;;;;;6.67;5.67;;;;;13.87;91.84;99457.16;5060312;28;45303;-75
2022/09/28 03:03:04;;;;;;;;;5.67;5.67;;;;;13.88;92.07;99457.94;5067788;28;47305;-76
2022/09/28 03:05:43;;;;;;;;;4.00;4.00;;;;;13.87;91.99;99459.00;5060740;28;45500;-76
2022/09/28 03:08:21;;;;;;;;;4.67;4.67;;;;;13.86;91.75;99460.06;5061254;28;45426;-75
2022/09/28 03:10:54;;;;;;;;;6.00;4.33;;;;;13.85;92.07;99458.41;5060133;27;45437;-76
2022/09/28 03:13:21;;;;;;;;;6.67;6.67;;;;;13.86;92.07;99460.06;5060048;28;46231;-75
2022/09/28 03:15:46;;;;;;;;;7.33;6.33;;;;;13.82;92.03;99453.50;5062622;28;46597;-76
2022/09/28 03:18:11;;;;;;;;;8.00;5.67;;;;;13.83;92.22;99455.16;5068320;28;45316;-75
2022/09/28 03:20:37;;;;;;;;;7.67;5.00;;;;;13.85;91.88;99461.91;5061253;28;45724;-75
2022/09/28 03:23:03;;;;;;;;;8.00;6.33;;;;;13.84;92.13;99460.28;5061015;28;45433;-76
2022/09/28 03:25:28;;;;;;;;;6.00;5.00;;;;;13.83;91.98;99466.66;5060926;28;45304;-76
2022/09/28 03:27:54;;;;;;;;;6.33;5.67;;;;;13.86;91.73;99473.41;5061276;28;45329;-75
2022/09/28 03:30:21;;;;;;;;;6.00;6.00;;;;;13.86;91.44;99473.41;5060001;28;45214;-76
2022/09/28 03:32:46;;;;;;;;;11.67;9.33;;;;;13.87;91.83;99480.38;5060454;28;45429;-75
2022/09/28 03:35:12;;;;;;;;;7.33;7.33;;;;;13.82;91.81;99466.88;5060884;28;45584;-75
2022/09/28 03:37:37;;;;;;;;;6.67;5.33;;;;;13.81;91.63;99460.72;5060602;28;45189;-75
2022/09/28 03:40:03;;;;;;;;;6.33;6.33;;;;;13.87;91.34;99472.34;5061292;28;45508;-76
2022/09/28 03:42:28;;;;;;;;;4.67;4.67;;;;;13.85;91.41;99469.09;5060636;28;45302;-76
2022/09/28 03:44:54;;;;;;;;;6.00;6.00;;;;;13.84;91.38;99457.59;5060867;28;46224;-75
2022/09/28 03:47:20;;;;;;;;;5.33;5.33;;;;;13.85;91.23;99464.56;5060646;28;45377;-75
2022/09/28 03:49:45;;;;;;;;;7.00;5.67;;;;;13.85;91.12;99466.41;5060983;27;45310;-75
2022/09/28 03:52:12;;;;;;;;;5.33;4.00;;;;;13.88;91.25;99471.31;5058975;28;46039;-76
2022/09/28 03:54:38;;;;;;;;;5.00;3.67;;;;;13.81;90.96;99474.09;5059029;28;47031;-75
2022/09/28 03:57:03;;;;;;;;;7.67;4.67;;;;;13.78;91.23;99471.03;5060598;28;45286;-75
2022/09/28 03:59:29;;;;;;;;;6.00;4.67;;;;;13.74;90.77;99476.84;5059276;28;45621;-76
2022/09/28 04:01:55;;;;;;;;;7.00;5.00;;;;;13.69;90.96;99490.06;5064254;28;45421;-75
2022/09/28 04:04:20;;;;;;;;;4.33;4.00;;;;;13.67;91.37;99488.63;5070997;27;46202;-76
2022/09/28 04:06:46;;;;;;;;;6.67;4.67;;;;;13.61;91.45;99477.84;5075882;27;45394;-75
2022/09/28 04:09:11;;;;;;;;;4.67;3.33;;;;;13.59;91.26;99471.91;5059365;28;45236;-76
2022/09/28 04:11:36;;;;;;;;;8.33;5.00;;;;;13.52;91.51;99478.38;5059121;28;47169;-76
2022/09/28 04:14:02;;;;;;;;;4.00;4.00;;;;;13.59;91.72;99493.25;5060232;28;46662;-76
2022/09/28 04:16:27;;;;;;;;;6.67;5.00;;;;;13.67;91.32;99480.63;5060332;28;45434;-75
2022/09/28 04:18:53;;;;;;;;;7.33;6.00;;;;;13.61;91.44;99490.34;5060466;28;45263;-76
2022/09/28 04:21:19;;;;;;;;;4.67;4.67;;;;;13.63;91.52;99496.28;5060324;28;45361;-75
2022/09/28 04:23:45;;;;;;;;;6.67;6.33;;;;;13.63;91.84;99498.97;5059794;28;45416;-75
2022/09/28 04:26:19;;;;;;;;;6.00;6.00;;;;;13.62;91.94;99492.81;5058803;28;45807;-76
2022/09/28 04:31:30;;;;;;;;;5.33;5.00;;;;;13.58;91.74;99502.31;5059895;28;45300;-76
2022/09/28 04:33:56;;;;;;;;;5.33;5.33;;;;;13.75;91.43;99501.69;5058528;28;47444;-75
2022/09/28 04:36:23;;;;;;;;;7.00;7.00;;;;;13.72;91.10;99486.94;5058630;28;45889;-76
2022/09/28 04:38:52;;;;;;;;;5.00;5.00;;;;;13.73;90.78;99493.91;5059827;28;45346;-75
2022/09/28 04:41:17;;;;;;;;;5.00;4.00;;;;;13.70;90.59;99489.00;5058519;28;46259;-76
2022/09/28 04:43:45;;;;;;;;;4.33;4.33;;;;;13.68;90.41;99488.41;5057294;28;48309;-75
2022/09/28 04:46:11;;;;;;;;;6.00;6.00;;;;;13.59;90.62;99498.59;5059816;28;45388;-75
2022/09/28 04:48:36;;;;;;;;;5.33;4.67;;;;;13.65;90.30;99498.75;5058706;28;45366;-75
2022/09/28 04:51:02;;;;;;;;;5.67;5.00;;;;;13.47;90.98;99495.81;5059555;28;46175;-75
2022/09/28 04:53:28;;;;;;;;;6.00;6.00;;;;;13.50;90.93;99489.28;5057998;28;48550;-75
2022/09/28 04:56:04;;;;;;;;;6.00;6.00;;;;;13.54;91.30;99506.47;5060017;28;45333;-75
2022/09/28 04:58:31;;;;;;;;;15.00;9.00;;;;;13.55;91.20;99521.44;5058540;28;45383;-75
2022/09/28 05:00:59;;;;;;;;;17.33;17.33;;;;;13.52;91.42;99516.53;5059645;28;45198;-75
2022/09/28 05:03:27;;;;;;;;;15.00;15.00;;;;;13.50;91.63;99506.09;5072147;28;47175;-76
2022/09/28 05:05:53;;;;;;;;;13.00;12.00;;;;;13.58;91.67;99518.31;5059784;28;45302;-75
2022/09/28 05:08:19;;;;;;;;;11.67;11.67;;;;;13.58;91.37;99512.16;5058890;28;45253;-75
2022/09/28 05:10:44;;;;;;;;;10.67;10.00;;;;;13.57;91.44;99507.88;5059456;28;45460;-75
2022/09/28 05:13:11;;;;;;;;;11.00;9.67;;;;;13.59;91.43;99513.81;5057741;28;47416;-76
2022/09/28 05:15:40;;;;;;;;;12.67;12.67;;;;;13.60;91.50;99502.91;5058201;28;46120;-75
2022/09/28 05:18:06;;;;;;;;;7.33;6.00;;;;;13.68;91.42;99512.44;5067719;28;45448;-75
2022/09/28 05:20:32;;;;;;;;;9.67;9.67;;;;;13.67;90.92;99505.47;5057903;28;47364;-75
2022/09/28 05:22:58;;;;;;;;;9.00;9.00;;;;;13.63;90.62;99502.47;5057671;28;47436;-75
2022/09/28 05:25:23;;;;;;;;;8.00;7.00;;;;;13.66;90.32;99508.38;5057824;28;45398;-75
2022/09/28 05:27:55;;;;;;;;;9.00;7.33;;;;;13.65;90.28;99520.94;5058178;28;45269;-75
2022/09/28 05:30:21;;;;;;;;;8.67;7.67;;;;;13.63;90.26;99512.31;5059082;28;45529;-76
2022/09/28 05:32:48;;;;;;;;;6.00;4.67;;;;;13.55;90.15;99502.75;5057683;28;47416;-75
2022/09/28 05:35:13;;;;;;;;;7.33;7.33;;;;;13.56;90.33;99506.25;5059179;28;45374;-75
2022/09/28 05:37:39;;;;;;;;;5.33;5.33;;;;;13.47;90.18;99517.19;5058789;28;45326;-75
2022/09/28 05:40:06;;;;;;;;;6.00;6.00;;;;;13.53;90.59;99509.38;5056674;28;46025;-75
2022/09/28 05:42:31;;;;;;;;;6.67;4.33;;;;;13.56;90.56;99515.06;5056978;28;47267;-75
2022/09/28 05:44:59;;;;;;;;;5.33;5.33;;;;;13.59;90.48;99521.81;5057519;28;45320;-75
2022/09/28 05:47:25;;;;;;;;;7.00;6.00;;;;;13.54;90.55;99506.47;5059255;28;45425;-76
2022/09/28 05:49:51;;;;;;;;;9.00;7.33;;;;;13.60;90.56;99516.25;5058968;28;45520;-76
2022/09/28 05:52:17;;;;;;;;;9.33;9.00;;;;;13.43;90.73;99494.66;5058524;28;45644;-78
2022/09/28 05:54:43;;;;;;;;;9.00;6.00;;;;;13.62;90.37;99521.38;5057806;28;45485;-78
2022/09/28 05:57:08;;;;;;;;;7.67;5.33;;;;;13.58;90.46;99517.50;5061280;28;45414;-76
2022/09/28 05:59:34;;;;;;;;;10.00;10.00;;;;;13.59;90.49;99519.16;5062541;28;45386;-76
2022/09/28 06:02:00;;;;;;;;;7.67;7.67;;;;;13.65;90.48;99530.78;5066699;28;45514;-77
2022/09/28 06:04:26;;;;;;;;;10.00;10.00;;;;;13.66;91.00;99530.56;5071961;27;45347;-76
2022/09/28 06:06:51;;;;;;;;;6.67;6.67;;;;;13.67;91.25;99532.19;5061080;28;45326;-77
2022/09/28 06:09:16;;;;;;;;;8.00;7.00;;;;;13.67;90.71;99542.03;5060893;28;46105;-75
2022/09/28 06:11:42;;;;;;;;;7.33;6.33;;;;;13.67;90.71;99528.69;5062412;28;45952;-75
2022/09/28 06:14:07;;;;;;;;;10.00;8.00;;;;;13.67;90.63;99524.16;5058604;28;48372;-76
2022/09/28 06:16:33;;;;;;;;;12.00;8.33;;;;;13.68;90.59;99531.13;5052349;28;45375;-76
2022/09/28 06:18:59;;;;;;;;;11.00;7.33;;;;;13.71;90.56;99532.56;5062087;28;45328;-75
2022/09/28 06:21:24;;;;;;;;;8.67;7.33;;;;;13.70;90.55;99530.91;5061903;28;46248;-76
2022/09/28 06:23:50;;;;;;;;;5.33;5.33;;;;;13.66;90.88;99527.88;5062115;28;45276;-76
2022/09/28 06:26:15;;;;;;;;;9.33;7.33;;;;;13.74;90.86;99540.91;5062003;28;45383;-75
2022/09/28 06:28:41;;;;;;;;;6.67;6.67;;;;;13.69;90.84;99531.94;5060795;28;46934;-74
2022/09/28 06:31:07;;;;;;;;;11.00;9.33;;;;;13.75;90.62;99547.91;5061947;28;46267;-75
2022/09/28 06:33:32;;;;;;;;;9.33;7.00;;;;;13.72;90.77;99540.34;5061823;28;45266;-75
2022/09/28 06:35:58;;;;;;;;;8.00;8.00;;;;;13.78;90.83;99551.16;5062064;28;45287;-75
2022/09/28 06:38:23;;;;;;;;;10.00;10.00;;;;;13.81;90.68;99545.34;5061572;28;45484;-75
2022/09/28 06:40:49;;;;;;;;;9.00;8.33;;;;;13.85;90.77;99543.88;5060419;28;47375;-74
2022/09/28 06:43:14;;;;;;;;;9.33;9.00;;;;;13.90;90.72;99557.38;5075746;27;46054;-74
2022/09/28 06:45:41;;;;;;;;;11.33;8.33;;;;;13.92;90.75;99560.63;5061585;28;45568;-74
2022/09/28 06:48:09;;;;;;;;;5.33;4.00;;;;;13.91;91.22;99552.84;5061866;28;45335;-74
2022/09/28 06:50:38;;;;;;;;;11.67;11.67;;;;;13.98;90.95;99556.25;5060088;28;47319;-74
2022/09/28 06:53:05;;;;;;;;;15.00;13.00;;;;;13.98;90.67;99565.06;5047525;28;45295;-75
2022/09/28 06:55:31;;;;;;;;;12.33;11.00;;;;;14.04;90.52;99559.88;5060478;28;45337;-75
2022/09/28 06:58:01;;;;;;;;;11.33;10.33;;;;;14.03;90.27;99560.91;5074074;28;45322;-75
2022/09/28 07:00:29;;;;;;;;;9.67;9.67;;;;;14.12;90.38;99572.88;5096648;27;47296;-76
2022/09/28 07:02:55;;;;;;;;;9.33;8.67;;;;;14.07;90.31;99570.09;5080520;28;45508;-75
2022/09/28 07:05:25;;;;;;;;;10.00;9.67;;;;;14.06;90.13;99571.94;5063720;27;45267;-75
2022/09/28 07:07:54;;;;;;;;;10.33;8.00;;;;;14.06;90.00;99577.28;5060139;28;45236;-75
2022/09/28 07:10:20;;;;;;;;;9.00;9.00;;;;;14.10;89.55;99585.69;5060993;28;45898;-74
2022/09/28 07:12:46;;;;;;;;;9.67;8.67;;;;;13.93;88.67;99569.44;5061163;28;45378;-75
2022/09/28 07:15:11;;;;;;;;;11.33;10.00;;;;;13.91;88.93;99580.34;5059780;28;45369;-75
2022/09/28 07:17:37;;;;;;;;;9.00;9.00;;;;;13.89;89.35;99583.25;5071167;28;45549;-75
2022/09/28 07:20:04;;;;;;;;;11.67;9.00;;;;;13.91;89.02;99588.38;5061205;28;45263;-75
2022/09/28 07:22:29;;;;;;;;;8.33;8.33;;;;;13.95;89.34;99592.22;5060735;28;45413;-76
2022/09/28 07:24:56;;;;;;;;;11.00;9.67;;;;;14.05;90.11;99593.53;5061364;28;45485;-75
2022/09/28 07:27:22;;;;;;;;;5.00;5.00;;;;;14.15;90.16;99593.81;5056494;28;45283;-75
2022/09/28 07:29:47;;;;;;;;;13.67;11.00;;;;;14.17;90.49;99590.91;5056759;28;45302;-74
2022/09/28 07:32:12;;;;;;;;;13.00;11.00;;;;;14.18;89.85;99596.03;5076702;28;45298;-76
2022/09/28 07:34:43;;;;;;;;;8.33;7.67;;;;;14.21;89.51;99592.09;5066201;28;44923;-76
2022/09/28 07:37:10;;;;;;;;;8.67;7.67;;;;;14.24;89.68;99592.47;5070671;28;46879;-77
2022/09/28 07:41:10;;;;;;;;;8.00;7.00;;;;;14.40;89.27;99606.25;5099941;27;45268;-77
2022/09/28 07:42:23;;;;;;;;;5.00;4.67;;;;;14.42;89.00;99608.69;5086515;28;44791;-76
2022/09/28 07:44:48;;;;;;;;;6.00;6.00;;;;;14.36;88.40;99613.06;5085325;27;45394;-77
2022/09/28 07:47:13;;;;;;;;;6.67;5.67;;;;;14.34;87.99;99610.63;5063579;28;45270;-77
2022/09/28 07:49:39;;;;;;;;;5.67;5.67;;;;;14.41;87.96;99617.72;5072594;28;45482;-77
2022/09/28 07:52:04;;;;;;;;;6.00;4.00;;;;;14.43;87.42;99611.13;5071298;28;45215;-77
2022/09/28 07:54:30;;;;;;;;;3.33;3.33;;;;;14.49;86.97;99626.25;5075498;28;45008;-76
2022/09/28 07:56:55;;;;;;;;;5.00;5.00;;;;;14.49;86.51;99617.44;5090025;28;45409;-77
2022/09/28 07:59:21;;;;;;;;;13.33;12.67;;;;;14.52;86.70;99623.13;5095461;27;45413;-77
2022/09/28 08:01:48;;;;;;;;;33.00;28.67;;;;;14.50;86.23;99617.19;5083655;27;45302;-77
2022/09/28 08:04:14;;;;;;;;;6.33;6.33;;;;;14.51;85.99;99618.81;5110243;27;45373;-77
2022/09/28 08:06:39;;;;;;;;;13.67;12.00;;;;;14.54;85.46;99630.13;5078552;27;45262;-77
2022/09/28 08:09:05;;;;;;;;;23.67;22.67;;;;;14.46;84.97;99623.22;5077233;28;46197;-77
2022/09/28 08:11:30;;;;;;;;;13.67;10.00;;;;;14.41;84.66;99625.75;5093230;27;45318;-76
2022/09/28 08:13:57;;;;;;;;;50.75;41.25;;;;;14.38;84.49;99624.34;5088973;28;45359;-76
2022/09/28 08:16:23;;;;;;;;;16.50;16.50;;;;;14.36;84.64;99623.75;5089789;27;45314;-77
2022/09/28 08:18:48;;;;;;;;;28.33;26.00;;;;;14.37;84.51;99631.53;5073777;28;45353;-76
2022/09/28 08:23:59;;;;;;;;;4.00;4.00;;;;;14.37;84.99;99634.22;5075882;27;45298;-76
2022/09/28 08:26:25;;;;;;;;;5.00;3.67;;;;;14.27;84.77;99626.75;5085381;28;45219;-76
2022/09/28 08:28:50;;;;;;;;;5.33;5.33;;;;;14.24;84.84;99645.91;5069110;28;48297;-76
2022/09/28 08:31:15;;;;;;;;;37.33;29.00;;;;;14.17;84.60;99634.50;5067434;28;45223;-77
2022/09/28 08:33:41;;;;;;;;;7.67;5.67;;;;;14.17;84.46;99642.50;5054277;28;45220;-77
2022/09/28 08:36:08;;;;;;;;;5.00;3.00;;;;;14.14;84.29;99645.63;5062793;28;44931;-76
2022/09/28 08:38:34;;;;;;;;;4.33;4.33;;;;;14.08;83.99;99639.34;5063867;28;45678;-77
2022/09/28 08:41:28;;;;;;;;;4.00;4.00;;;;;14.06;84.77;99637.91;5077366;28;45376;-77
2022/09/28 08:44:12;;;;;;;;;4.00;4.00;;;;;14.05;84.16;99634.44;5076724;27;45699;-76
2022/09/28 08:46:44;;;;;;;;;4.67;3.00;;;;;14.09;84.43;99646.31;5076198;27;45322;-77
2022/09/28 08:49:20;;;;;;;;;2.00;2.00;;;;;14.06;83.29;99646.75;5066395;28;45684;-76
2022/09/28 08:52:12;;;;;;;;;4.33;3.67;;;;;14.10;83.69;99644.47;5073174;28;45227;-79
2022/09/28 08:55:06;;;;;;;;;6.33;5.67;;;;;14.14;83.95;99653.66;5063195;28;45324;-76
2022/09/28 08:57:46;;;;;;;;;3.00;3.00;;;;;14.23;83.44;99656.81;5062802;28;45697;-77
2022/09/28 09:00:44;;;;;;;;;3.33;3.33;;;;;14.38;81.52;99651.91;5061592;28;46865;-77
2022/09/28 09:03:14;;;;;;;;;4.00;2.33;;;;;14.38;82.06;99637.72;5060355;28;45724;-76
2022/09/28 09:06:16;;;;;;;;;1.67;1.67;;;;;14.46;80.52;99652.63;5057616;28;45750;-76
2022/09/28 09:08:59;;;;;;;;;2.00;1.00;;;;;14.50;79.89;99640.44;5055981;28;46437;-77
2022/09/28 09:12:06;;;;;;;;;0.00;0.00;;;;;14.52;80.14;99636.47;5056585;28;45489;-77
2022/09/28 09:14:59;;;;;;;;;3.33;2.00;;;;;14.69;79.85;99651.09;5059214;28;45317;-74
2022/09/28 09:17:54;;;;;;;;;3.00;3.00;;;;;14.77;79.75;99642.72;5063155;28;45350;-75
2022/09/28 09:20:33;;;;;;;;;1.67;1.67;;;;;14.94;78.17;99648.25;5060042;28;45356;-75
2022/09/28 09:23:04;;;;;;;;;2.33;2.33;;;;;15.02;78.35;99642.56;5058423;28;48410;-78
2022/09/28 09:25:41;;;;;;;;;4.00;2.67;;;;;15.02;77.42;99647.91;5060345;28;45393;-74
2022/09/28 09:28:25;;;;;;;;;3.33;2.00;;;;;15.00;76.67;99652.66;5059461;28;45432;-75
2022/09/28 09:31:07;;;;;;;;;3.00;2.33;;;;;14.95;76.73;99635.69;5054090;28;47415;-75
2022/09/28 09:33:52;;;;;;;;;3.00;3.00;;;;;15.08;77.60;99646.16;5055594;28;45244;-76
2022/09/28 09:36:23;;;;;;;;;2.00;2.00;;;;;15.06;74.14;99648.28;5057488;28;46087;-77
2022/09/28 09:39:11;;;;;;;;;3.00;2.00;;;;;14.99;75.10;99647.53;5059024;28;45379;-76
2022/09/28 09:42:13;;;;;;;;;3.33;3.00;;;;;14.98;75.67;99643.25;5058564;28;45554;-76
2022/09/28 09:45:14;;;;;;;;;3.00;3.00;;;;;15.05;75.85;99633.25;5055750;28;47321;-77
2022/09/28 09:47:48;;;;;;;;;2.00;2.00;;;;;15.20;77.01;99640.81;5047096;28;45527;-76
2022/09/28 09:50:24;;;;;;;;;2.67;2.67;;;;;15.29;74.38;99646.66;5056255;28;45282;-76
2022/09/28 09:52:56;;;;;;;;;1.00;1.00;;;;;15.32;74.08;99637.34;5072500;28;45437;-74
2022/09/28 09:55:56;;;;;;;;;2.00;2.00;;;;;15.38;74.08;99639.06;5057460;28;47352;-75
2022/09/28 09:58:34;;;;;;;;;1.00;1.00;;;;;15.44;75.08;99630.13;5038253;27;45345;-79
2022/09/28 10:01:16;;;;;;;;;2.00;2.00;;;;;15.56;74.98;99629.31;5071210;28;45434;-76
2022/09/28 10:03:48;;;;;;;;;3.00;2.00;;;;;15.63;73.91;99624.63;5073135;27;45373;-78
2022/09/28 10:06:19;;;;;;;;;3.00;2.33;;;;;15.76;73.38;99629.75;5065814;28;45718;-78
2022/09/28 10:08:52;;;;;;;;;2.00;2.00;;;;;15.86;74.02;99625.66;5070956;28;45253;-78
2022/09/28 10:11:24;;;;;;;;;1.00;1.00;;;;;15.99;70.45;99612.00;5058904;28;45468;-78
2022/09/28 10:13:49;;;;;;;;;4.00;3.00;;;;;16.06;73.13;99617.22;5058450;28;45447;-79
2022/09/28 10:16:17;;;;;;;;;1.00;1.00;;;;;16.03;72.19;99617.69;5064017;28;45891;-78
2022/09/28 10:18:43;;;;;;;;;1.33;1.00;;;;;16.01;70.65;99620.59;5059963;28;45922;-78
2022/09/28 10:21:18;;;;;;;;;1.00;1.00;;;;;15.96;70.02;99617.00;5057529;28;45389;-79
2022/09/28 10:23:49;;;;;;;;;2.67;1.67;;;;;15.86;69.99;99620.28;5058130;28;45374;-79
2022/09/28 10:26:21;;;;;;;;;1.00;1.00;;;;;16.02;69.60;99622.22;5057019;28;47933;-80
2022/09/28 10:28:50;;;;;;;;;0.67;0.67;;;;;16.09;68.90;99613.25;5058305;28;45310;-79
2022/09/28 10:31:39;;;;;;;;;3.33;1.33;;;;;16.18;67.71;99619.84;5057426;28;45365;-81
2022/09/28 10:34:06;;;;;;;;;1.00;1.00;;;;;16.14;67.89;99611.47;5056836;28;47247;-79
2022/09/28 10:36:43;;;;;;;;;1.00;0.00;;;;;16.19;67.16;99621.47;5058105;28;46411;-79
2022/09/28 10:39:30;;;;;;;;;2.33;1.00;;;;;16.17;66.27;99622.78;5058256;28;45271;-79
2022/09/28 10:41:58;;;;;;;;;1.00;0.00;;;;;16.17;67.74;99620.91;5059270;28;45392;-80
2022/09/28 10:44:24;;;;;;;;;2.00;2.00;;;;;16.18;68.46;99619.84;5061450;28;45464;-79
2022/09/28 10:47:14;;;;;;;;;0.00;0.00;;;;;16.24;68.51;99616.22;5064804;28;45731;-80
2022/09/28 10:49:43;;;;;;;;;1.00;1.00;;;;;16.27;67.35;99610.38;5065172;27;45424;-78
2022/09/28 10:52:31;;;;;;;;;1.67;0.33;;;;;16.39;62.68;99623.72;5059622;28;45335;-79
2022/09/28 10:54:56;;;;;;;;;2.00;2.00;;;;;16.43;64.31;99607.97;5066772;28;46068;-80
2022/09/28 10:57:34;;;;;;;;;3.00;1.00;;;;;16.51;65.34;99623.69;5059435;28;45463;-78
2022/09/28 11:00:00;;;;;;;;;0.00;0.00;;;;;16.53;65.09;99610.81;5073701;28;45347;-80
2022/09/28 11:02:29;;;;;;;;;0.67;0.00;;;;;16.56;63.50;99614.09;5071508;27;45461;-79
2022/09/28 11:05:01;;;;;;;;;1.00;1.00;;;;;16.66;63.86;99620.44;5061092;28;45434;-80
2022/09/28 11:07:31;;;;;;;;;1.00;1.00;;;;;16.77;64.10;99624.09;5059659;28;47076;-80
2022/09/28 11:09:59;;;;;;;;;0.00;0.00;;;;;16.77;59.78;99620.63;5061300;28;45344;-79
2022/09/28 11:12:34;;;;;;;;;2.00;1.00;;;;;16.81;61.23;99623.59;5059358;28;45386;-79
2022/09/28 11:15:06;;;;;;;;;1.33;0.00;;;;;16.78;62.19;99625.75;5059751;28;46412;-79
2022/09/28 11:17:43;;;;;;;;;1.00;1.00;;;;;16.73;58.88;99620.28;5059455;28;47864;-80
2022/09/28 11:23:34;;;;;;;;;1.00;1.00;;;;;16.70;60.44;99610.03;5046929;28;45709;-80
2022/09/28 11:29:34;;;;;;;;;3.67;3.00;;;;;16.73;60.57;99569.31;5012058;28;45851;-78
2022/09/28 11:35:35;;;;;;;;;2.00;2.00;;;;;17.19;58.79;99595.25;4996791;28;45403;-78
2022/09/28 11:38:23;;;;;;;;;2.00;2.00;;;;;17.43;59.30;99600.41;4998859;28;46171;-78
2022/09/28 11:41:44;;;;;;;;;3.00;1.33;;;;;17.74;58.19;99605.34;5077498;27;47073;-78
2022/09/28 11:44:48;;;;;;;;;0.00;0.00;;;;;17.72;60.37;99551.06;5061380;27;45548;-78
2022/09/28 11:50:56;;;;;;;;;3.00;1.00;;;;;18.49;58.81;99614.78;5090961;27;46285;-78
2022/09/28 11:53:37;;;;;;;;;0.67;0.67;;;;;18.59;57.41;99597.94;5078827;27;47690;-78
2022/09/28 11:56:26;;;;;;;;;0.33;0.33;;;;;18.58;55.87;99599.00;5081132;27;45636;-77
2022/09/28 11:58:58;;;;;;;;;0.33;0.33;;;;;18.38;55.24;99592.38;5062403;28;45508;-78
2022/09/28 12:01:30;;;;;;;;;1.00;1.00;;;;;18.37;55.02;99607.69;5074538;27;45593;-77
2022/09/28 12:04:02;;;;;;;;;0.00;0.00;;;;;18.22;53.77;99592.22;5097709;27;46601;-77
2022/09/28 12:06:36;;;;;;;;;1.00;1.00;;;;;18.10;54.15;99604.94;5097774;27;45468;-78
2022/09/28 12:09:11;;;;;;;;;1.00;1.00;;;;;18.04;54.64;99593.34;5087779;27;45323;-79
2022/09/28 12:11:42;;;;;;;;;1.00;1.00;;;;;18.03;56.08;99587.16;5086933;27;45405;-77
2022/09/28 12:14:19;;;;;;;;;1.00;1.00;;;;;18.24;57.38;99589.28;5093622;27;45668;-78
2022/09/28 12:16:51;;;;;;;;;1.00;1.00;;;;;18.38;56.34;99587.78;5095074;27;45305;-77